Barcelona, Spain
Current Conditions -  °F | °C
As of 9:30 PM on Saturday 20 Dec 2014 (Local Time) from LEBL Reporting Station
Few Clouds Few Clouds  
Wind Chill: 50°   Ceiling: Unl
Heat Index: 50°   Visibility: 6mi
Dew Point: 45°   Wind: 16mph
Humidity: 82%   Direction: 320°NW
Pressure: 30.42"   Gusts: NA
Location:  41.39°N, 2.17°E
Report Text: LEBL 202030Z 32014KT 9999 FEW030 10/07 Q1030 NOSIG
Loading
Personal Weather Stations






























Interactive Weather Map New forecast layout! Learn more

10-Day Weather Forecast

Advertisements
Track Severe Weather on mobile